sensor_id;sensor_type;location;lat;lon;timestamp;pressure;altitude;pressure_sealevel;temperature;humidity
53246;BME280;39569;51.090;-1.786;2023-04-25T00:00:00;100877.47;;;15.11;47.60
53246;BME280;39569;51.090;-1.786;2023-04-25T00:02:28;100877.22;;;15.06;47.49
53246;BME280;39569;51.090;-1.786;2023-04-25T00:04:57;100880.31;;;15.03;46.92
53246;BME280;39569;51.090;-1.786;2023-04-25T00:07:26;100884.03;;;15.02;47.44
53246;BME280;39569;51.090;-1.786;2023-04-25T00:09:53;100895.09;;;14.52;48.00
53246;BME280;39569;51.090;-1.786;2023-04-25T00:12:20;100891.63;;;14.58;48.06
53246;BME280;39569;51.090;-1.786;2023-04-25T00:14:48;100889.88;;;14.44;48.18
53246;BME280;39569;51.090;-1.786;2023-04-25T00:17:15;100883.78;;;14.56;48.24
53246;BME280;39569;51.090;-1.786;2023-04-25T00:19:41;100885.22;;;14.59;47.74
53246;BME280;39569;51.090;-1.786;2023-04-25T00:22:10;100886.16;;;14.45;47.50
53246;BME280;39569;51.090;-1.786;2023-04-25T00:24:38;100882.19;;;14.68;47.49
53246;BME280;39569;51.090;-1.786;2023-04-25T00:27:05;100881.59;;;14.73;47.10
53246;BME280;39569;51.090;-1.786;2023-04-25T00:29:32;100883.97;;;14.55;47.15
53246;BME280;39569;51.090;-1.786;2023-04-25T00:31:58;100886.88;;;14.60;47.27
53246;BME280;39569;51.090;-1.786;2023-04-25T00:34:25;100896.38;;;14.56;47.05
53246;BME280;39569;51.090;-1.786;2023-04-25T00:36:52;100887.22;;;14.50;47.37
53246;BME280;39569;51.090;-1.786;2023-04-25T00:39:19;100897.47;;;14.40;47.65
53246;BME280;39569;51.090;-1.786;2023-04-25T00:41:47;100901.41;;;14.38;47.34
53246;BME280;39569;51.090;-1.786;2023-04-25T00:44:18;100898.78;;;14.23;47.34
53246;BME280;39569;51.090;-1.786;2023-04-25T00:46:47;100896.34;;;14.28;47.44
53246;BME280;39569;51.090;-1.786;2023-04-25T00:49:13;100894.50;;;14.29;47.13
53246;BME280;39569;51.090;-1.786;2023-04-25T00:51:42;100909.31;;;14.25;47.39
53246;BME280;39569;51.090;-1.786;2023-04-25T00:54:09;100912.91;;;14.11;47.80
53246;BME280;39569;51.090;-1.786;2023-04-25T00:56:36;100912.31;;;13.94;47.79
53246;BME280;39569;51.090;-1.786;2023-04-25T00:59:04;100919.56;;;14.15;47.19
53246;BME280;39569;51.090;-1.786;2023-04-25T01:01:32;100922.69;;;14.18;47.62
53246;BME280;39569;51.090;-1.786;2023-04-25T01:04:00;100925.31;;;14.12;47.54
53246;BME280;39569;51.090;-1.786;2023-04-25T01:06:27;100933.38;;;14.12;47.52
53246;BME280;39569;51.090;-1.786;2023-04-25T01:08:54;100924.53;;;13.97;48.16
53246;BME280;39569;51.090;-1.786;2023-04-25T01:11:21;100932.09;;;14.08;47.74
53246;BME280;39569;51.090;-1.786;2023-04-25T01:13:47;100941.81;;;13.88;48.05
53246;BME280;39569;51.090;-1.786;2023-04-25T01:16:16;100945.06;;;14.04;47.62
53246;BME280;39569;51.090;-1.786;2023-04-25T01:18:43;100950.06;;;14.07;47.30
53246;BME280;39569;51.090;-1.786;2023-04-25T01:21:13;100956.03;;;14.03;47.48
53246;BME280;39569;51.090;-1.786;2023-04-25T01:23:40;100961.38;;;14.03;47.17
53246;BME280;39569;51.090;-1.786;2023-04-25T01:26:08;100956.72;;;13.90;47.39
53246;BME280;39569;51.090;-1.786;2023-04-25T01:28:36;100961.69;;;13.57;48.23
53246;BME280;39569;51.090;-1.786;2023-04-25T01:31:03;100959.47;;;13.46;48.45
53246;BME280;39569;51.090;-1.786;2023-04-25T01:33:31;100964.19;;;13.59;48.70
53246;BME280;39569;51.090;-1.786;2023-04-25T01:35:58;100958.44;;;13.62;48.16
53246;BME280;39569;51.090;-1.786;2023-04-25T01:38:26;100959.75;;;13.87;48.16
53246;BME280;39569;51.090;-1.786;2023-04-25T01:40:54;100953.50;;;13.80;48.00
53246;BME280;39569;51.090;-1.786;2023-04-25T01:43:21;100955.09;;;13.74;47.65
53246;BME280;39569;51.090;-1.786;2023-04-25T01:45:49;100956.94;;;13.74;47.88
53246;BME280;39569;51.090;-1.786;2023-04-25T01:48:16;100959.16;;;13.70;47.81
53246;BME280;39569;51.090;-1.786;2023-04-25T01:50:44;100951.56;;;13.74;47.63
53246;BME280;39569;51.090;-1.786;2023-04-25T01:53:13;100953.50;;;13.80;47.41
53246;BME280;39569;51.090;-1.786;2023-04-25T01:55:41;100947.94;;;13.81;47.60
53246;BME280;39569;51.090;-1.786;2023-04-25T01:58:08;100960.16;;;13.84;47.65
53246;BME280;39569;51.090;-1.786;2023-04-25T02:00:38;100955.72;;;13.76;47.33
53246;BME280;39569;51.090;-1.786;2023-04-25T02:03:06;100961.19;;;13.68;47.64
53246;BME280;39569;51.090;-1.786;2023-04-25T02:05:35;100954.03;;;13.75;47.58
53246;BME280;39569;51.090;-1.786;2023-04-25T02:08:02;100955.63;;;13.70;47.21
53246;BME280;39569;51.090;-1.786;2023-04-25T02:10:29;100955.56;;;13.63;47.32
53246;BME280;39569;51.090;-1.786;2023-04-25T02:12:58;100961.66;;;13.72;47.44
53246;BME280;39569;51.090;-1.786;2023-04-25T02:15:25;100960.25;;;13.76;47.34
53246;BME280;39569;51.090;-1.786;2023-04-25T02:17:51;100962.78;;;13.63;47.68
53246;BME280;39569;51.090;-1.786;2023-04-25T02:20:19;100970.75;;;13.71;47.07
53246;BME280;39569;51.090;-1.786;2023-04-25T02:22:47;100967.97;;;13.64;47.68
53246;BME280;39569;51.090;-1.786;2023-04-25T02:25:13;100967.50;;;13.61;47.54
53246;BME280;39569;51.090;-1.786;2023-04-25T02:27:41;100975.56;;;13.61;47.38
53246;BME280;39569;51.090;-1.786;2023-04-25T02:30:10;100978.78;;;13.71;47.49
53246;BME280;39569;51.090;-1.786;2023-04-25T02:32:37;100980.00;;;13.68;47.09
53246;BME280;39569;51.090;-1.786;2023-04-25T02:35:04;100972.59;;;13.70;47.02
53246;BME280;39569;51.090;-1.786;2023-04-25T02:37:32;100977.75;;;13.72;46.52
53246;BME280;39569;51.090;-1.786;2023-04-25T02:39:59;100979.34;;;13.66;46.59
53246;BME280;39569;51.090;-1.786;2023-04-25T02:42:26;100979.13;;;13.32;46.90
53246;BME280;39569;51.090;-1.786;2023-04-25T02:44:53;100971.81;;;13.26;46.92
53246;BME280;39569;51.090;-1.786;2023-04-25T02:47:21;100968.28;;;13.40;46.54
53246;BME280;39569;51.090;-1.786;2023-04-25T02:49:48;100975.06;;;13.36;46.13
53246;BME280;39569;51.090;-1.786;2023-04-25T02:52:14;100976.78;;;13.29;46.63
53246;BME280;39569;51.090;-1.786;2023-04-25T02:54:41;100991.31;;;13.20;46.88
53246;BME280;39569;51.090;-1.786;2023-04-25T02:57:08;100990.66;;;13.04;46.70
53246;BME280;39569;51.090;-1.786;2023-04-25T02:59:35;100986.72;;;12.77;46.73
53246;BME280;39569;51.090;-1.786;2023-04-25T03:02:01;100991.19;;;12.99;46.62
53246;BME280;39569;51.090;-1.786;2023-04-25T03:04:29;100996.03;;;13.04;47.00
53246;BME280;39569;51.090;-1.786;2023-04-25T03:06:56;100995.50;;;12.85;46.66
53246;BME280;39569;51.090;-1.786;2023-04-25T03:09:23;100998.47;;;12.91;46.69
53246;BME280;39569;51.090;-1.786;2023-04-25T03:11:50;100995.13;;;12.88;47.01
53246;BME280;39569;51.090;-1.786;2023-04-25T03:14:17;101008.06;;;12.85;47.10
53246;BME280;39569;51.090;-1.786;2023-04-25T03:16:43;100996.25;;;12.94;47.21
53246;BME280;39569;51.090;-1.786;2023-04-25T03:19:10;101005.72;;;12.90;47.48
53246;BME280;39569;51.090;-1.786;2023-04-25T03:21:38;101015.44;;;13.06;47.00
53246;BME280;39569;51.090;-1.786;2023-04-25T03:24:05;101005.88;;;12.88;47.40
53246;BME280;39569;51.090;-1.786;2023-04-25T03:26:32;101004.09;;;12.81;47.07
53246;BME280;39569;51.090;-1.786;2023-04-25T03:28:59;101014.91;;;12.73;47.64
53246;BME280;39569;51.090;-1.786;2023-04-25T03:31:25;101014.44;;;12.69;47.19
53246;BME280;39569;51.090;-1.786;2023-04-25T03:33:52;101018.69;;;12.64;47.34
53246;BME280;39569;51.090;-1.786;2023-04-25T03:36:19;101023.84;;;12.65;47.33
53246;BME280;39569;51.090;-1.786;2023-04-25T03:38:47;101021.59;;;12.54;47.64
53246;BME280;39569;51.090;-1.786;2023-04-25T03:41:14;101013.84;;;12.59;47.46
53246;BME280;39569;51.090;-1.786;2023-04-25T03:43:40;101026.78;;;12.56;47.20
53246;BME280;39569;51.090;-1.786;2023-04-25T03:46:07;101025.16;;;12.47;47.81
53246;BME280;39569;51.090;-1.786;2023-04-25T03:48:34;101036.25;;;12.44;47.76
53246;BME280;39569;51.090;-1.786;2023-04-25T03:51:01;101032.84;;;12.50;47.78
53246;BME280;39569;51.090;-1.786;2023-04-25T03:53:28;101039.56;;;12.46;47.58
53246;BME280;39569;51.090;-1.786;2023-04-25T03:55:56;101044.22;;;12.52;48.04
53246;BME280;39569;51.090;-1.786;2023-04-25T03:58:22;101045.00;;;12.60;47.42
53246;BME280;39569;51.090;-1.786;2023-04-25T04:00:49;101043.22;;;12.53;47.99
53246;BME280;39569;51.090;-1.786;2023-04-25T04:03:16;101043.09;;;12.46;48.25
53246;BME280;39569;51.090;-1.786;2023-04-25T04:05:43;101048.56;;;12.53;47.95
53246;BME280;39569;51.090;-1.786;2023-04-25T04:08:10;101045.53;;;12.56;47.67
53246;BME280;39569;51.090;-1.786;2023-04-25T04:10:37;101052.72;;;12.55;47.43
53246;BME280;39569;51.090;-1.786;2023-04-25T04:13:05;101064.88;;;12.43;48.14
53246;BME280;39569;51.090;-1.786;2023-04-25T04:15:31;101061.06;;;12.38;48.10
53246;BME280;39569;51.090;-1.786;2023-04-25T04:17:59;101059.38;;;12.37;47.95
53246;BME280;39569;51.090;-1.786;2023-04-25T04:20:28;101060.03;;;12.39;47.47
53246;BME280;39569;51.090;-1.786;2023-04-25T04:22:55;101054.09;;;12.29;47.46
53246;BME280;39569;51.090;-1.786;2023-04-25T04:25:22;101067.34;;;12.22;47.64
53246;BME280;39569;51.090;-1.786;2023-04-25T04:27:49;101065.25;;;12.10;47.85
53246;BME280;39569;51.090;-1.786;2023-04-25T04:30:21;101068.72;;;12.18;47.56
53246;BME280;39569;51.090;-1.786;2023-04-25T04:32:49;101066.44;;;12.07;47.54
53246;BME280;39569;51.090;-1.786;2023-04-25T04:35:16;101063.09;;;12.05;47.64
53246;BME280;39569;51.090;-1.786;2023-04-25T04:37:43;101067.69;;;11.88;47.60
53246;BME280;39569;51.090;-1.786;2023-04-25T04:40:11;101071.88;;;11.91;47.66
53246;BME280;39569;51.090;-1.786;2023-04-25T04:42:40;101065.69;;;11.91;47.58
53246;BME280;39569;51.090;-1.786;2023-04-25T04:45:08;101082.97;;;11.80;47.55
53246;BME280;39569;51.090;-1.786;2023-04-25T04:47:36;101078.13;;;11.75;47.75
53246;BME280;39569;51.090;-1.786;2023-04-25T04:50:05;101083.34;;;11.69;48.20
53246;BME280;39569;51.090;-1.786;2023-04-25T04:52:32;101092.88;;;11.71;48.01
53246;BME280;39569;51.090;-1.786;2023-04-25T04:54:59;101088.38;;;11.56;48.09
53246;BME280;39569;51.090;-1.786;2023-04-25T04:57:26;101091.84;;;11.64;48.06
53246;BME280;39569;51.090;-1.786;2023-04-25T04:59:52;101092.19;;;11.61;47.96
53246;BME280;39569;51.090;-1.786;2023-04-25T05:02:19;101098.72;;;11.59;47.89
53246;BME280;39569;51.090;-1.786;2023-04-25T05:04:47;101122.16;;;11.65;48.29
53246;BME280;39569;51.090;-1.786;2023-04-25T05:07:15;101112.25;;;11.57;48.06
53246;BME280;39569;51.090;-1.786;2023-04-25T05:09:42;101123.00;;;11.49;47.59
53246;BME280;39569;51.090;-1.786;2023-04-25T05:12:09;101125.69;;;11.41;48.15
53246;BME280;39569;51.090;-1.786;2023-04-25T05:14:35;101123.50;;;11.37;47.89
53246;BME280;39569;51.090;-1.786;2023-04-25T05:17:02;101131.38;;;11.30;48.16
53246;BME280;39569;51.090;-1.786;2023-04-25T05:19:32;101137.41;;;11.40;48.12
53246;BME280;39569;51.090;-1.786;2023-04-25T05:22:00;101143.06;;;11.45;47.89
53246;BME280;39569;51.090;-1.786;2023-04-25T05:24:26;101144.06;;;11.44;48.19
53246;BME280;39569;51.090;-1.786;2023-04-25T05:26:53;101151.94;;;11.46;48.58
53246;BME280;39569;51.090;-1.786;2023-04-25T05:29:20;101154.75;;;11.44;47.96
53246;BME280;39569;51.090;-1.786;2023-04-25T05:31:46;101159.47;;;11.34;48.27
53246;BME280;39569;51.090;-1.786;2023-04-25T05:34:14;101160.13;;;11.36;48.25
53246;BME280;39569;51.090;-1.786;2023-04-25T05:36:41;101152.91;;;11.37;48.59
53246;BME280;39569;51.090;-1.786;2023-04-25T05:39:10;101159.09;;;11.53;48.20
53246;BME280;39569;51.090;-1.786;2023-04-25T05:41:36;101160.41;;;11.57;48.15
53246;BME280;39569;51.090;-1.786;2023-04-25T05:44:03;101165.63;;;11.67;48.25
53246;BME280;39569;51.090;-1.786;2023-04-25T05:46:30;101161.59;;;11.79;47.86
53246;BME280;39569;51.090;-1.786;2023-04-25T05:48:57;101157.03;;;11.88;47.90
53246;BME280;39569;51.090;-1.786;2023-04-25T05:51:24;101168.34;;;12.06;47.78
53246;BME280;39569;51.090;-1.786;2023-04-25T05:53:51;101160.38;;;11.98;48.19
53246;BME280;39569;51.090;-1.786;2023-04-25T05:56:19;101158.59;;;12.21;47.61
53246;BME280;39569;51.090;-1.786;2023-04-25T05:58:46;101149.19;;;12.25;47.59
53246;BME280;39569;51.090;-1.786;2023-04-25T06:01:12;101152.75;;;12.48;47.26
53246;BME280;39569;51.090;-1.786;2023-04-25T06:03:39;101150.50;;;12.59;47.32
53246;BME280;39569;51.090;-1.786;2023-04-25T06:06:08;101158.13;;;12.70;47.65
53246;BME280;39569;51.090;-1.786;2023-04-25T06:08:35;101162.56;;;12.86;47.04
53246;BME280;39569;51.090;-1.786;2023-04-25T06:11:01;101159.47;;;13.20;46.57
53246;BME280;39569;51.090;-1.786;2023-04-25T06:13:29;101161.44;;;13.40;46.56
53246;BME280;39569;51.090;-1.786;2023-04-25T06:15:56;101165.19;;;13.54;45.82
53246;BME280;39569;51.090;-1.786;2023-04-25T06:18:23;101164.56;;;13.66;46.41
53246;BME280;39569;51.090;-1.786;2023-04-25T06:20:50;101158.06;;;13.75;46.03
53246;BME280;39569;51.090;-1.786;2023-04-25T06:23:16;101170.03;;;13.73;45.67
53246;BME280;39569;51.090;-1.786;2023-04-25T06:25:43;101168.53;;;13.85;46.00
53246;BME280;39569;51.090;-1.786;2023-04-25T06:28:10;101174.09;;;13.98;45.81
53246;BME280;39569;51.090;-1.786;2023-04-25T06:30:38;101177.25;;;14.16;45.66
53246;BME280;39569;51.090;-1.786;2023-04-25T06:33:05;101178.69;;;14.62;44.76
53246;BME280;39569;51.090;-1.786;2023-04-25T06:35:33;101190.06;;;14.79;44.69
53246;BME280;39569;51.090;-1.786;2023-04-25T06:38:00;101185.44;;;14.94;43.75
53246;BME280;39569;51.090;-1.786;2023-04-25T06:40:27;101195.81;;;15.18;42.91
53246;BME280;39569;51.090;-1.786;2023-04-25T06:42:54;101199.88;;;15.29;43.08
53246;BME280;39569;51.090;-1.786;2023-04-25T06:45:20;101196.03;;;15.38;42.19
53246;BME280;39569;51.090;-1.786;2023-04-25T06:47:49;101194.00;;;15.67;42.03
53246;BME280;39569;51.090;-1.786;2023-04-25T06:50:15;101196.34;;;15.07;42.13
53246;BME280;39569;51.090;-1.786;2023-04-25T06:52:42;101203.19;;;15.10;42.56
53246;BME280;39569;51.090;-1.786;2023-04-25T06:55:09;101199.09;;;14.93;42.74
53246;BME280;39569;51.090;-1.786;2023-04-25T06:57:36;101196.78;;;14.90;42.47
53246;BME280;39569;51.090;-1.786;2023-04-25T07:00:03;101194.16;;;14.96;42.50
53246;BME280;39569;51.090;-1.786;2023-04-25T07:02:34;101203.91;;;14.97;42.17
53246;BME280;39569;51.090;-1.786;2023-04-25T07:05:02;101200.13;;;14.56;43.30
53246;BME280;39569;51.090;-1.786;2023-04-25T07:07:29;101197.34;;;14.64;43.76
53246;BME280;39569;51.090;-1.786;2023-04-25T07:09:56;101190.38;;;14.91;42.86
53246;BME280;39569;51.090;-1.786;2023-04-25T07:12:23;101199.41;;;15.04;42.44
53246;BME280;39569;51.090;-1.786;2023-04-25T07:14:50;101203.19;;;15.10;43.24
53246;BME280;39569;51.090;-1.786;2023-04-25T07:17:16;101205.88;;;14.89;43.08
53246;BME280;39569;51.090;-1.786;2023-04-25T07:19:43;101209.28;;;15.18;42.58
53246;BME280;39569;51.090;-1.786;2023-04-25T07:22:11;101211.66;;;15.28;42.48
53246;BME280;39569;51.090;-1.786;2023-04-25T07:24:39;101208.44;;;15.39;42.52
53246;BME280;39569;51.090;-1.786;2023-04-25T07:27:05;101213.97;;;15.52;42.02
53246;BME280;39569;51.090;-1.786;2023-04-25T07:29:32;101214.03;;;15.58;41.97
53246;BME280;39569;51.090;-1.786;2023-04-25T07:32:02;101208.97;;;15.49;41.99
53246;BME280;39569;51.090;-1.786;2023-04-25T07:34:29;101212.00;;;15.60;42.02
53246;BME280;39569;51.090;-1.786;2023-04-25T07:36:57;101208.03;;;15.91;41.10
53246;BME280;39569;51.090;-1.786;2023-04-25T07:39:26;101210.75;;;16.25;41.55
53246;BME280;39569;51.090;-1.786;2023-04-25T07:41:52;101206.44;;;16.30;40.39
53246;BME280;39569;51.090;-1.786;2023-04-25T07:44:20;101202.69;;;16.72;40.52
53246;BME280;39569;51.090;-1.786;2023-04-25T07:46:46;101206.25;;;16.92;39.49
53246;BME280;39569;51.090;-1.786;2023-04-25T07:49:13;101201.16;;;17.43;38.54
53246;BME280;39569;51.090;-1.786;2023-04-25T07:51:40;101204.31;;;17.53;37.81
53246;BME280;39569;51.090;-1.786;2023-04-25T07:54:08;101205.09;;;17.47;36.13
53246;BME280;39569;51.090;-1.786;2023-04-25T07:56:36;101210.25;;;18.14;37.12
53246;BME280;39569;51.090;-1.786;2023-04-25T07:59:03;101218.97;;;18.42;35.30
53246;BME280;39569;51.090;-1.786;2023-04-25T08:01:30;101217.06;;;18.49;34.40
53246;BME280;39569;51.090;-1.786;2023-04-25T08:03:57;101215.38;;;18.54;35.12
53246;BME280;39569;51.090;-1.786;2023-04-25T08:06:25;101212.00;;;18.59;35.10
53246;BME280;39569;51.090;-1.786;2023-04-25T08:08:52;101214.06;;;18.63;35.25
53246;BME280;39569;51.090;-1.786;2023-04-25T08:11:19;101214.97;;;18.44;34.98
53246;BME280;39569;51.090;-1.786;2023-04-25T08:13:48;101208.06;;;18.99;35.41
53246;BME280;39569;51.090;-1.786;2023-04-25T08:16:14;101216.38;;;19.35;34.82
53246;BME280;39569;51.090;-1.786;2023-04-25T08:18:41;101224.09;;;19.88;34.42
53246;BME280;39569;51.090;-1.786;2023-04-25T08:21:08;101212.91;;;20.75;32.67
53246;BME280;39569;51.090;-1.786;2023-04-25T08:23:36;101205.84;;;21.44;31.79
53246;BME280;39569;51.090;-1.786;2023-04-25T08:26:03;101203.22;;;21.49;31.15
53246;BME280;39569;51.090;-1.786;2023-04-25T08:28:30;101204.22;;;21.78;30.45
53246;BME280;39569;51.090;-1.786;2023-04-25T08:30:59;101204.59;;;21.82;31.24
53246;BME280;39569;51.090;-1.786;2023-04-25T08:33:26;101205.81;;;22.88;29.60
53246;BME280;39569;51.090;-1.786;2023-04-25T08:35:52;101198.00;;;23.86;28.90
53246;BME280;39569;51.090;-1.786;2023-04-25T08:38:19;101200.69;;;24.36;26.58
53246;BME280;39569;51.090;-1.786;2023-04-25T08:40:50;101196.34;;;24.83;26.47
53246;BME280;39569;51.090;-1.786;2023-04-25T08:43:18;101200.94;;;25.31;26.08
53246;BME280;39569;51.090;-1.786;2023-04-25T08:45:46;101201.91;;;25.78;25.34
53246;BME280;39569;51.090;-1.786;2023-04-25T08:48:16;101201.03;;;24.66;24.33
53246;BME280;39569;51.090;-1.786;2023-04-25T08:50:45;101197.75;;;24.43;26.12
53246;BME280;39569;51.090;-1.786;2023-04-25T08:53:16;101211.16;;;24.66;26.19
53246;BME280;39569;51.090;-1.786;2023-04-25T08:55:46;101208.34;;;24.39;24.89
53246;BME280;39569;51.090;-1.786;2023-04-25T08:58:13;101200.69;;;24.36;26.42
53246;BME280;39569;51.090;-1.786;2023-04-25T09:00:40;101195.22;;;23.65;26.95
53246;BME280;39569;51.090;-1.786;2023-04-25T09:03:07;101189.97;;;23.13;26.26
53246;BME280;39569;51.090;-1.786;2023-04-25T09:05:35;101202.44;;;22.18;28.60
53246;BME280;39569;51.090;-1.786;2023-04-25T09:08:02;101206.75;;;22.94;26.93
53246;BME280;39569;51.090;-1.786;2023-04-25T09:10:29;101202.56;;;23.31;27.07
53246;BME280;39569;51.090;-1.786;2023-04-25T09:13:03;101204.25;;;23.65;26.05
53246;BME280;39569;51.090;-1.786;2023-04-25T09:15:31;101206.09;;;24.14;24.38
53246;BME280;39569;51.090;-1.786;2023-04-25T09:17:58;101191.22;;;25.13;26.57
53246;BME280;39569;51.090;-1.786;2023-04-25T09:20:25;101195.03;;;25.76;23.99
53246;BME280;39569;51.090;-1.786;2023-04-25T09:23:03;101192.41;;;25.27;22.93
53246;BME280;39569;51.090;-1.786;2023-04-25T09:25:34;101189.47;;;25.02;23.16
53246;BME280;39569;51.090;-1.786;2023-04-25T09:28:04;101192.28;;;25.12;24.56
53246;BME280;39569;51.090;-1.786;2023-04-25T09:30:34;101184.97;;;25.50;24.04
53246;BME280;39569;51.090;-1.786;2023-04-25T09:33:05;101197.75;;;24.86;25.07
53246;BME280;39569;51.090;-1.786;2023-04-25T09:35:36;101191.03;;;25.52;26.26
53246;BME280;39569;51.090;-1.786;2023-04-25T09:38:10;101189.88;;;24.68;22.60
53246;BME280;39569;51.090;-1.786;2023-04-25T09:40:41;101189.81;;;24.41;23.38
53246;BME280;39569;51.090;-1.786;2023-04-25T09:43:18;101189.88;;;24.68;23.26
53246;BME280;39569;51.090;-1.786;2023-04-25T09:45:45;101192.91;;;24.50;25.14
53246;BME280;39569;51.090;-1.786;2023-04-25T09:48:16;101186.63;;;25.19;22.79
53246;BME280;39569;51.090;-1.786;2023-04-25T09:50:44;101201.56;;;24.63;24.18
53246;BME280;39569;51.090;-1.786;2023-04-25T09:53:12;101200.09;;;24.77;24.00
53246;BME280;39569;51.090;-1.786;2023-04-25T09:55:39;101191.38;;;26.02;24.77
53246;BME280;39569;51.090;-1.786;2023-04-25T09:58:08;101183.66;;;25.52;23.53
53246;BME280;39569;51.090;-1.786;2023-04-25T10:00:37;101184.97;;;26.23;22.59
53246;BME280;39569;51.090;-1.786;2023-04-25T10:03:05;101191.50;;;26.69;22.14
53246;BME280;39569;51.090;-1.786;2023-04-25T10:05:34;101180.56;;;26.22;21.05
53246;BME280;39569;51.090;-1.786;2023-04-25T10:08:03;101175.88;;;26.79;22.39
53246;BME280;39569;51.090;-1.786;2023-04-25T10:10:32;101179.22;;;26.24;21.28
53246;BME280;39569;51.090;-1.786;2023-04-25T10:13:03;101183.44;;;26.52;22.43
53246;BME280;39569;51.090;-1.786;2023-04-25T10:15:33;101191.69;;;25.64;21.62
53246;BME280;39569;51.090;-1.786;2023-04-25T10:18:01;101181.50;;;25.32;21.04
53246;BME280;39569;51.090;-1.786;2023-04-25T10:20:29;101191.06;;;26.40;20.56
53246;BME280;39569;51.090;-1.786;2023-04-25T10:23:01;101183.56;;;26.72;22.69
53246;BME280;39569;51.090;-1.786;2023-04-25T10:25:31;101196.28;;;27.59;19.78
53246;BME280;39569;51.090;-1.786;2023-04-25T10:27:59;101203.31;;;28.45;18.95
53246;BME280;39569;51.090;-1.786;2023-04-25T10:30:27;101204.47;;;27.23;19.73
53246;BME280;39569;51.090;-1.786;2023-04-25T10:32:55;101198.22;;;27.93;20.63
53246;BME280;39569;51.090;-1.786;2023-04-25T10:35:25;101194.78;;;28.37;18.92
53246;BME280;39569;51.090;-1.786;2023-04-25T10:37:59;101196.84;;;27.76;18.29
53246;BME280;39569;51.090;-1.786;2023-04-25T10:40:26;101187.41;;;28.27;20.30
53246;BME280;39569;51.090;-1.786;2023-04-25T10:42:54;101199.69;;;28.55;20.36
53246;BME280;39569;51.090;-1.786;2023-04-25T10:45:22;101199.31;;;27.72;18.99
53246;BME280;39569;51.090;-1.786;2023-04-25T10:47:49;101191.88;;;28.03;17.16
53246;BME280;39569;51.090;-1.786;2023-04-25T10:50:15;101189.66;;;28.15;18.37
53246;BME280;39569;51.090;-1.786;2023-04-25T10:52:42;101186.38;;;28.03;19.81
53246;BME280;39569;51.090;-1.786;2023-04-25T10:55:09;101188.47;;;28.41;18.51
53246;BME280;39569;51.090;-1.786;2023-04-25T10:57:38;101196.94;;;28.60;18.86
53246;BME280;39569;51.090;-1.786;2023-04-25T11:00:09;101191.75;;;29.02;16.83
53246;BME280;39569;51.090;-1.786;2023-04-25T11:02:38;101182.97;;;29.39;17.76
53246;BME280;39569;51.090;-1.786;2023-04-25T11:05:08;101180.50;;;29.37;19.65
53246;BME280;39569;51.090;-1.786;2023-04-25T11:07:39;101182.13;;;29.38;16.93
53246;BME280;39569;51.090;-1.786;2023-04-25T11:10:10;101190.97;;;29.69;18.06
53246;BME280;39569;51.090;-1.786;2023-04-25T11:12:37;101199.97;;;29.12;17.09
53246;BME280;39569;51.090;-1.786;2023-04-25T11:15:05;101195.81;;;29.09;17.49
53246;BME280;39569;51.090;-1.786;2023-04-25T11:17:34;101200.25;;;30.07;19.92
53246;BME280;39569;51.090;-1.786;2023-04-25T11:20:01;101191.59;;;30.42;16.83
53246;BME280;39569;51.090;-1.786;2023-04-25T11:22:31;101182.84;;;30.77;15.69
53246;BME280;39569;51.090;-1.786;2023-04-25T11:25:00;101182.69;;;30.50;16.89
53246;BME280;39569;51.090;-1.786;2023-04-25T11:27:30;101191.16;;;29.82;15.55
53246;BME280;39569;51.090;-1.786;2023-04-25T11:29:57;101183.00;;;30.20;16.29
53246;BME280;39569;51.090;-1.786;2023-04-25T11:32:24;101187.19;;;30.88;15.35
53246;BME280;39569;51.090;-1.786;2023-04-25T11:34:52;101182.81;;;32.16;13.88
53246;BME280;39569;51.090;-1.786;2023-04-25T11:37:19;101177.91;;;32.40;15.79
53246;BME280;39569;51.090;-1.786;2023-04-25T11:40:49;62679.75;;;-139.47;100.00
53246;BME280;39569;51.090;-1.786;2023-04-25T11:44:15;62679.75;;;-139.47;100.00
53246;BME280;39569;51.090;-1.786;2023-04-25T11:47:41;62679.75;;;-139.47;100.00
53246;BME280;39569;51.090;-1.786;2023-04-25T11:50:10;101176.09;;;32.98;13.04
53246;BME280;39569;51.090;-1.786;2023-04-25T11:52:38;101172.13;;;33.79;15.20
53246;BME280;39569;51.090;-1.786;2023-04-25T11:56:08;62679.75;;;-139.47;100.00
53246;BME280;39569;51.090;-1.786;2023-04-25T11:59:48;62679.75;;;-139.47;100.00
53246;BME280;39569;51.090;-1.786;2023-04-25T12:03:22;62679.75;;;-139.47;100.00
53246;BME280;39569;51.090;-1.786;2023-04-25T12:06:51;62679.75;;;-139.47;100.00
53246;BME280;39569;51.090;-1.786;2023-04-25T12:10:18;62679.75;;;-139.47;100.00
53246;BME280;39569;51.090;-1.786;2023-04-25T12:13:44;62679.75;;;-139.47;100.00
53246;BME280;39569;51.090;-1.786;2023-04-25T12:17:10;62679.75;;;-139.47;100.00
53246;BME280;39569;51.090;-1.786;2023-04-25T12:20:36;62679.75;;;-139.47;100.00
53246;BME280;39569;51.090;-1.786;2023-04-25T12:24:12;62679.75;;;-139.47;100.00
53246;BME280;39569;51.090;-1.786;2023-04-25T12:27:44;62679.75;;;-139.47;100.00
53246;BME280;39569;51.090;-1.786;2023-04-25T12:31:10;62679.75;;;-139.47;100.00
53246;BME280;39569;51.090;-1.786;2023-04-25T12:34:36;62679.75;;;-139.47;100.00
53246;BME280;39569;51.090;-1.786;2023-04-25T12:38:01;62679.75;;;-139.47;100.00
53246;BME280;39569;51.090;-1.786;2023-04-25T12:41:28;62679.75;;;-139.47;100.00
53246;BME280;39569;51.090;-1.786;2023-04-25T12:44:53;62679.75;;;-139.47;100.00
53246;BME280;39569;51.090;-1.786;2023-04-25T12:48:19;62679.75;;;-139.47;100.00
53246;BME280;39569;51.090;-1.786;2023-04-25T12:51:45;62679.75;;;-139.47;100.00
53246;BME280;39569;51.090;-1.786;2023-04-25T12:55:11;62679.75;;;-139.47;100.00
53246;BME280;39569;51.090;-1.786;2023-04-25T12:58:37;62679.75;;;-139.47;100.00
53246;BME280;39569;51.090;-1.786;2023-04-25T13:02:03;62679.75;;;-139.47;100.00